Time;durP1;ratioP1;P1;durP2;ratioP2;P2;SDS_P1;SDS_P2;PMS_P1;PMS_P2;Temp;Humidity;BMP_temperature;BMP_pressure;BME280_temperature;BME280_humidity;BME280_pressure;Samples;Min_cycle;Max_cycle;Signal;HPM_P1;HPM_P2
2023/07/23 00:02:06;;;;;;;10.57;5.55;;;;;;;-142.75;100.00;75830.22;5089297;28;20035;-65
2023/07/23 00:04:32;;;;;;;12.18;5.45;;;;;;;-142.75;100.00;75838.09;5089604;28;20032;-66
2023/07/23 00:06:57;;;;;;;9.93;4.85;;;;;;;-142.75;100.00;75828.25;5089290;28;20065;-67
2023/07/23 00:09:22;;;;;;;10.07;5.20;;;;;;;-142.75;100.00;75814.47;5089163;28;20073;-66
2023/07/23 00:11:48;;;;;;;14.60;6.05;;;;;;;-142.75;100.00;75812.50;5089358;28;20677;-66
2023/07/23 00:14:13;;;;;;;9.88;5.03;;;;;;;-142.75;100.00;75812.50;5089325;28;20052;-66
2023/07/23 00:16:39;;;;;;;12.02;5.15;;;;;;;-142.75;100.00;75808.56;5089975;28;20024;-66
2023/07/23 00:19:04;;;;;;;15.32;5.57;;;;;;;-142.75;100.00;75802.66;5088009;28;20189;-66
2023/07/23 00:21:30;;;;;;;11.25;5.53;;;;;;;-142.75;100.00;75808.56;5089083;28;20027;-67
2023/07/23 00:23:56;;;;;;;11.18;5.55;;;;;;;-142.75;100.00;75806.59;5089344;28;20085;-66
2023/07/23 00:26:21;;;;;;;11.10;6.22;;;;;;;-142.75;100.00;75800.69;5089000;28;20031;-66
2023/07/23 00:28:46;;;;;;;12.15;5.45;;;;;;;-142.75;100.00;75796.75;5075956;28;20028;-66
2023/07/23 00:31:12;;;;;;;13.38;6.43;;;;;;;-142.75;100.00;75794.78;5068503;28;20107;-66
2023/07/23 00:33:37;;;;;;;8.98;5.13;;;;;;;-142.75;100.00;75788.88;5080981;28;20146;-66
2023/07/23 00:36:03;;;;;;;11.60;5.65;;;;;;;-142.75;100.00;75767.22;5089019;28;20024;-66
2023/07/23 00:38:28;;;;;;;10.10;4.93;;;;;;;-142.75;100.00;75771.16;5088441;28;20024;-66
2023/07/23 00:40:56;;;;;;;11.68;5.25;;;;;;;-142.75;100.00;75771.16;5088627;28;20035;-66
2023/07/23 00:43:22;;;;;;;8.63;5.22;;;;;;;-142.75;100.00;75771.16;5088764;28;20051;-66
2023/07/23 00:45:47;;;;;;;16.42;5.20;;;;;;;-142.75;100.00;75773.13;5088789;28;20483;-66
2023/07/23 00:48:13;;;;;;;9.23;5.47;;;;;;;-142.75;100.00;75773.13;5089076;28;20146;-66
2023/07/23 00:50:38;;;;;;;10.07;5.05;;;;;;;-142.75;100.00;75796.75;5088291;28;20493;-66
2023/07/23 00:53:04;;;;;;;11.25;4.90;;;;;;;-142.75;100.00;75786.91;5088595;28;20040;-66
2023/07/23 00:55:29;;;;;;;9.88;4.68;;;;;;;-142.75;100.00;75784.94;5088505;28;20020;-67
2023/07/23 00:57:55;;;;;;;9.88;4.75;;;;;;;-142.75;100.00;75790.84;5088484;28;20054;-66
2023/07/23 01:00:20;;;;;;;10.00;4.88;;;;;;;-142.75;100.00;75781.00;5088515;28;20052;-66
2023/07/23 01:02:46;;;;;;;10.57;5.65;;;;;;;-142.75;100.00;75769.19;5088365;28;20593;-66
2023/07/23 01:05:12;;;;;;;8.88;4.90;;;;;;;-142.75;100.00;75773.13;5067658;28;20111;-66
2023/07/23 01:07:37;;;;;;;10.52;4.60;;;;;;;-142.75;100.00;75761.34;5068113;28;20039;-66
2023/07/23 01:10:04;;;;;;;8.10;4.45;;;;;;;-142.75;100.00;75769.19;5067925;28;20034;-66
2023/07/23 01:12:31;;;;;;;8.57;4.90;;;;;;;-142.75;100.00;75741.66;5068082;28;20051;-66
2023/07/23 01:14:57;;;;;;;8.80;4.85;;;;;;;-142.75;100.00;75747.56;5068068;28;20021;-66
2023/07/23 01:17:23;;;;;;;10.63;5.00;;;;;;;-142.75;100.00;75753.47;5068331;28;20063;-65
2023/07/23 01:20:05;;;;;;;10.00;5.03;;;;;;;-142.75;100.00;75737.72;5067856;28;20048;-66
2023/07/23 01:22:35;;;;;;;9.80;5.78;;;;;;;-142.75;100.00;75739.69;5088046;28;20034;-65
2023/07/23 01:25:01;;;;;;;9.35;5.43;;;;;;;-142.75;100.00;75733.78;5087872;28;20028;-66
2023/07/23 01:27:27;;;;;;;11.23;5.72;;;;;;;-142.75;100.00;75731.81;5088049;28;20495;-67
2023/07/23 01:29:52;;;;;;;8.93;4.85;;;;;;;-142.75;100.00;75723.94;5087694;28;20105;-65
2023/07/23 01:32:18;;;;;;;10.15;5.43;;;;;;;-142.75;100.00;75714.09;5088471;28;20027;-66
2023/07/23 01:34:43;;;;;;;12.02;5.55;;;;;;;-142.75;100.00;75710.16;5088598;28;20040;-66
2023/07/23 01:37:10;;;;;;;13.32;6.10;;;;;;;-142.75;100.00;75720.00;5071303;28;20500;-66
2023/07/23 01:39:36;;;;;;;14.13;5.85;;;;;;;-142.75;100.00;75712.13;5068007;28;20028;-66
2023/07/23 01:42:02;;;;;;;10.10;5.03;;;;;;;-142.75;100.00;75700.31;5067312;28;20036;-66
2023/07/23 01:44:28;;;;;;;11.25;5.75;;;;;;;-142.75;100.00;75694.41;5067579;28;20024;-66
2023/07/23 01:46:53;;;;;;;9.15;5.47;;;;;;;-142.75;100.00;75698.34;5067928;28;20040;-66
2023/07/23 01:49:19;;;;;;;10.93;5.93;;;;;;;-142.75;100.00;75696.38;5068342;28;20454;-66
2023/07/23 01:51:44;;;;;;;11.65;5.47;;;;;;;-142.75;100.00;75686.53;5067068;28;20055;-66
2023/07/23 01:54:09;;;;;;;9.68;5.00;;;;;;;-142.75;100.00;75688.50;5067370;28;20107;-67
2023/07/23 01:56:35;;;;;;;8.23;5.05;;;;;;;-142.75;100.00;75684.56;5067540;28;20111;-66
2023/07/23 01:59:01;;;;;;;8.38;5.05;;;;;;;-142.75;100.00;75684.56;5067334;28;20389;-66
2023/07/23 02:01:27;;;;;;;11.18;6.25;;;;;;;-142.75;100.00;75700.31;5066884;28;20483;-66
2023/07/23 02:03:52;;;;;;;11.88;5.75;;;;;;;-142.75;100.00;75688.50;5067053;28;20103;-66
2023/07/23 02:06:17;;;;;;;10.38;5.03;;;;;;;-142.75;100.00;75682.59;5067398;28;20024;-66
2023/07/23 02:08:43;;;;;;;9.45;4.93;;;;;;;-142.75;100.00;75686.53;5066064;28;20035;-66
2023/07/23 02:11:08;;;;;;;9.00;4.70;;;;;;;-142.75;100.00;75672.78;5067074;28;20036;-66
2023/07/23 02:13:33;;;;;;;11.73;5.63;;;;;;;-142.75;100.00;75672.78;5067332;28;20494;-66
2023/07/23 02:15:59;;;;;;;11.48;5.30;;;;;;;-142.75;100.00;75668.84;5066296;28;20017;-66
2023/07/23 02:18:24;;;;;;;12.23;5.70;;;;;;;-142.75;100.00;75670.81;5067422;28;20036;-66
2023/07/23 02:20:50;;;;;;;8.48;5.95;;;;;;;-142.75;100.00;75660.97;5066919;28;20081;-66
2023/07/23 02:23:18;;;;;;;12.25;5.78;;;;;;;-142.75;100.00;75651.13;5067102;28;20032;-66
2023/07/23 02:25:47;;;;;;;12.45;5.60;;;;;;;-142.75;100.00;75657.03;5066832;28;20060;-66
2023/07/23 02:28:12;;;;;;;10.60;5.55;;;;;;;-142.75;100.00;75637.34;5067070;28;20021;-66
2023/07/23 02:30:38;;;;;;;13.32;5.38;;;;;;;-142.75;100.00;75625.53;5066655;28;20036;-67
2023/07/23 02:33:03;;;;;;;8.85;5.45;;;;;;;-142.75;100.00;75625.53;5066705;28;20028;-67
2023/07/23 02:35:28;;;;;;;9.80;5.13;;;;;;;-142.75;100.00;75633.41;5067029;28;20451;-66
2023/07/23 02:37:54;;;;;;;15.27;4.88;;;;;;;-142.75;100.00;75629.47;5067052;28;20028;-66
2023/07/23 02:40:19;;;;;;;13.73;6.22;;;;;;;-142.75;100.00;75615.69;5066690;28;20027;-66
2023/07/23 02:42:48;;;;;;;10.15;5.70;;;;;;;-142.75;100.00;75609.78;5066799;28;20491;-66
2023/07/23 02:45:13;;;;;;;9.32;5.30;;;;;;;-142.75;100.00;75617.66;5066909;28;20028;-66
2023/07/23 02:47:38;;;;;;;10.15;5.85;;;;;;;-142.75;100.00;75621.59;5067139;28;20029;-66
2023/07/23 02:50:04;;;;;;;13.35;5.65;;;;;;;-142.75;100.00;75615.69;5065084;28;20031;-66
2023/07/23 02:52:30;;;;;;;16.60;5.97;;;;;;;-142.75;100.00;75596.00;5066892;28;20499;-66
2023/07/23 02:54:55;;;;;;;12.75;5.80;;;;;;;-142.75;100.00;75596.00;5066455;28;20032;-66
2023/07/23 02:57:20;;;;;;;10.07;5.55;;;;;;;-142.75;100.00;75597.97;5068240;28;20035;-66
2023/07/23 02:59:46;;;;;;;13.02;5.90;;;;;;;-142.75;100.00;75594.06;5086610;28;20028;-68
2023/07/23 03:02:13;;;;;;;12.73;6.28;;;;;;;-142.75;100.00;75605.84;5086572;28;20028;-66
2023/07/23 03:04:39;;;;;;;12.80;5.68;;;;;;;-142.75;100.00;75597.97;5086632;28;20073;-66
2023/07/23 03:07:04;;;;;;;10.98;6.28;;;;;;;-142.75;100.00;75603.88;5066647;28;20115;-66
2023/07/23 03:09:30;;;;;;;12.18;5.90;;;;;;;-142.75;100.00;75594.06;5066075;28;20028;-66
2023/07/23 03:11:55;;;;;;;12.98;5.95;;;;;;;-142.75;100.00;75613.72;5066138;28;20063;-66
2023/07/23 03:14:20;;;;;;;11.45;5.18;;;;;;;-142.75;100.00;75599.94;5066655;28;20504;-66
2023/07/23 03:16:45;;;;;;;11.68;6.03;;;;;;;-142.75;100.00;75603.88;5066744;28;20507;-66
2023/07/23 03:19:11;;;;;;;13.02;6.10;;;;;;;-142.75;100.00;75603.88;5066774;28;20060;-66
2023/07/23 03:21:36;;;;;;;12.45;5.95;;;;;;;-142.75;100.00;75586.19;5066494;28;20476;-66
2023/07/23 03:24:02;;;;;;;11.50;6.97;;;;;;;-142.75;100.00;75590.13;5066251;28;20111;-66
2023/07/23 03:26:27;;;;;;;11.27;7.05;;;;;;;-142.75;100.00;75597.97;5066938;28;20111;-66
2023/07/23 03:28:52;;;;;;;12.30;6.55;;;;;;;-142.75;100.00;75594.06;5068825;28;20036;-65
2023/07/23 03:31:18;;;;;;;15.85;7.25;;;;;;;-142.75;100.00;75584.22;5069621;28;20032;-66
2023/07/23 03:33:43;;;;;;;12.52;6.05;;;;;;;-142.75;100.00;75594.06;5069847;28;20078;-66
2023/07/23 03:36:11;;;;;;;13.07;5.93;;;;;;;-142.75;100.00;75597.97;5070145;28;20025;-66
2023/07/23 03:38:36;;;;;;;11.20;5.90;;;;;;;-142.75;100.00;75603.88;5069945;28;20055;-66
2023/07/23 03:41:02;;;;;;;10.18;5.55;;;;;;;-142.75;100.00;75597.97;5069330;28;20028;-66
2023/07/23 03:43:27;;;;;;;19.45;6.82;;;;;;;-142.75;100.00;75613.72;5069997;28;20024;-66
2023/07/23 03:45:53;;;;;;;9.95;5.82;;;;;;;-142.75;100.00;75601.91;5077416;28;20032;-67
2023/07/23 03:48:18;;;;;;;13.32;5.28;;;;;;;-142.75;100.00;75615.69;5090319;28;20028;-66
2023/07/23 03:50:43;;;;;;;10.63;5.20;;;;;;;-142.75;100.00;75613.72;5089317;28;20066;-67
2023/07/23 03:53:09;;;;;;;9.13;5.00;;;;;;;-142.75;100.00;75631.44;5089821;28;20024;-66
2023/07/23 03:55:34;;;;;;;9.77;4.90;;;;;;;-142.75;100.00;75633.41;5090015;28;20074;-66
2023/07/23 03:57:59;;;;;;;8.13;4.85;;;;;;;-142.75;100.00;75629.47;5089852;28;20032;-67
2023/07/23 04:00:25;;;;;;;7.38;4.20;;;;;;;-142.75;100.00;75619.63;5088898;28;20028;-66
2023/07/23 04:02:50;;;;;;;8.15;3.92;;;;;;;-142.75;100.00;75621.59;5089544;28;20031;-66
2023/07/23 04:05:16;;;;;;;10.55;4.57;;;;;;;-142.75;100.00;75617.66;5089424;28;20024;-66
2023/07/23 04:07:41;;;;;;;8.98;4.90;;;;;;;-142.75;100.00;75605.84;5089507;28;20035;-67
2023/07/23 04:10:06;;;;;;;8.23;3.92;;;;;;;-142.75;100.00;75603.88;5089039;28;20107;-65
2023/07/23 04:12:33;;;;;;;8.38;4.43;;;;;;;-142.75;100.00;75601.91;5089457;28;20114;-66
2023/07/23 04:15:03;;;;;;;10.13;4.47;;;;;;;-142.75;100.00;75592.09;5089252;28;20051;-66
2023/07/23 04:17:28;;;;;;;8.35;3.85;;;;;;;-142.75;100.00;75596.00;5089930;28;20036;-66
2023/07/23 04:19:54;;;;;;;10.63;4.25;;;;;;;-142.75;100.00;75586.19;5088859;28;20097;-66
2023/07/23 04:22:19;;;;;;;8.95;4.82;;;;;;;-142.75;100.00;75590.13;5089382;28;20043;-66
2023/07/23 04:24:44;;;;;;;14.43;4.53;;;;;;;-142.75;100.00;75582.25;5089070;28;20115;-66
2023/07/23 04:27:10;;;;;;;5.40;3.25;;;;;;;-142.75;100.00;75596.00;5089440;28;20024;-66
2023/07/23 04:29:35;;;;;;;10.82;3.92;;;;;;;-142.75;100.00;75594.06;5089012;28;20047;-66
2023/07/23 04:32:00;;;;;;;10.15;4.18;;;;;;;-142.75;100.00;75599.94;5089237;28;20032;-66
2023/07/23 04:34:26;;;;;;;12.48;4.20;;;;;;;-142.75;100.00;75594.06;5088932;28;20111;-66
2023/07/23 04:36:52;;;;;;;7.45;4.30;;;;;;;-142.75;100.00;75596.00;5089189;28;20069;-66
2023/07/23 04:39:19;;;;;;;7.97;4.20;;;;;;;-142.75;100.00;75572.41;5088089;28;20082;-66
2023/07/23 04:41:44;;;;;;;11.02;4.40;;;;;;;-142.75;100.00;75592.09;5083658;28;20471;-66
2023/07/23 04:44:09;;;;;;;7.47;3.95;;;;;;;-142.75;100.00;75586.19;5068722;28;20078;-66
2023/07/23 04:46:35;;;;;;;11.13;4.28;;;;;;;-142.75;100.00;75586.19;5068705;28;20032;-66
2023/07/23 04:49:00;;;;;;;9.38;3.70;;;;;;;-142.75;100.00;75582.25;5068920;28;20466;-66
2023/07/23 04:51:25;;;;;;;6.70;4.10;;;;;;;-142.75;100.00;75578.31;5068161;28;20028;-66
2023/07/23 04:53:51;;;;;;;8.45;3.88;;;;;;;-142.75;100.00;75586.19;5068762;28;20517;-66
2023/07/23 04:56:16;;;;;;;8.82;4.25;;;;;;;-142.75;100.00;75586.19;5068461;28;20487;-66
2023/07/23 04:58:41;;;;;;;10.45;4.55;;;;;;;-142.75;100.00;75576.34;5068069;28;20111;-66
2023/07/23 05:01:11;;;;;;;8.07;3.85;;;;;;;-142.75;100.00;75572.41;5084953;28;20506;-66
2023/07/23 05:03:37;;;;;;;9.48;4.20;;;;;;;-142.75;100.00;75572.41;5087394;28;20035;-66
2023/07/23 05:06:04;;;;;;;7.90;4.28;;;;;;;-142.75;100.00;75578.31;5088475;28;20020;-66
2023/07/23 05:08:30;;;;;;;8.45;4.32;;;;;;;-142.75;100.00;75578.31;5088355;28;20028;-66
2023/07/23 05:11:00;;;;;;;10.20;4.68;;;;;;;-142.75;100.00;75556.66;5088113;28;20039;-67
2023/07/23 05:13:25;;;;;;;9.02;4.20;;;;;;;-142.75;100.00;75582.25;5087876;28;20541;-66
2023/07/23 05:15:51;;;;;;;9.18;3.78;;;;;;;-142.75;100.00;75592.09;5088209;28;20024;-67
2023/07/23 05:18:16;;;;;;;9.10;3.88;;;;;;;-142.75;100.00;75599.94;5089020;28;20027;-66
2023/07/23 05:20:41;;;;;;;11.63;4.28;;;;;;;-142.75;100.00;75601.91;5087829;28;20028;-65
2023/07/23 05:23:07;;;;;;;9.43;4.35;;;;;;;-142.75;100.00;75597.97;5088028;28;20034;-65
2023/07/23 05:25:32;;;;;;;10.63;4.13;;;;;;;-142.75;100.00;75605.84;5088015;28;20038;-66
2023/07/23 05:27:57;;;;;;;9.52;3.85;;;;;;;-142.75;100.00;75601.91;5086229;28;20020;-66
2023/07/23 05:30:23;;;;;;;12.57;4.72;;;;;;;-142.75;100.00;75609.78;5087613;28;20102;-66
2023/07/23 05:32:49;;;;;;;9.15;4.97;;;;;;;-142.75;100.00;75599.94;5088000;28;20024;-66
2023/07/23 05:35:14;;;;;;;7.85;4.43;;;;;;;-142.75;100.00;75613.72;5087829;28;20023;-66
2023/07/23 05:37:40;;;;;;;10.50;4.53;;;;;;;-142.75;100.00;75609.78;5087669;28;20491;-66
2023/07/23 05:40:06;;;;;;;12.25;4.80;;;;;;;-142.75;100.00;75625.53;5087766;28;20023;-65
2023/07/23 05:42:31;;;;;;;10.38;4.43;;;;;;;-142.75;100.00;75599.94;5087633;28;20115;-66
2023/07/23 05:44:57;;;;;;;9.27;4.53;;;;;;;-142.75;100.00;75596.00;5086293;28;20515;-66
2023/07/23 05:47:22;;;;;;;10.73;4.60;;;;;;;-142.75;100.00;75590.13;5067938;28;20024;-66
2023/07/23 05:49:48;;;;;;;10.00;4.93;;;;;;;-142.75;100.00;75574.38;5072230;28;20039;-66
2023/07/23 05:52:13;;;;;;;9.60;4.80;;;;;;;-142.75;100.00;75560.59;5087543;28;20028;-66
2023/07/23 05:54:38;;;;;;;10.95;4.25;;;;;;;-142.75;100.00;75554.69;5087470;28;20032;-65
2023/07/23 05:57:04;;;;;;;11.93;4.57;;;;;;;-142.75;100.00;75554.69;5087386;28;20042;-66
2023/07/23 05:59:29;;;;;;;11.32;5.05;;;;;;;-142.75;100.00;75597.97;5087390;28;20580;-64
2023/07/23 06:01:55;;;;;;;11.70;4.28;;;;;;;-142.75;100.00;75596.00;5087215;28;20069;-65
2023/07/23 06:04:20;;;;;;;11.00;4.80;;;;;;;-142.75;100.00;75570.44;5087303;28;20403;-65
2023/07/23 06:06:46;;;;;;;12.98;5.00;;;;;;;-142.75;100.00;75570.44;5087283;28;20475;-66
2023/07/23 06:09:11;;;;;;;9.35;4.97;;;;;;;-142.75;100.00;75568.47;5087279;28;20036;-66
2023/07/23 06:11:37;;;;;;;10.23;4.95;;;;;;;-142.75;100.00;75576.34;5086961;28;20042;-65
2023/07/23 06:14:02;;;;;;;9.98;4.85;;;;;;;-142.75;100.00;75564.53;5087161;28;20039;-65
2023/07/23 06:16:29;;;;;;;13.52;5.90;;;;;;;-142.75;100.00;75552.72;5087429;28;20051;-65
2023/07/23 06:18:55;;;;;;;9.60;5.00;;;;;;;-142.75;100.00;75568.47;5087683;28;20028;-64
2023/07/23 06:21:20;;;;;;;9.55;4.80;;;;;;;-142.75;100.00;75578.31;5086897;28;20156;-63
2023/07/23 06:23:45;;;;;;;12.80;5.28;;;;;;;-142.75;100.00;75584.22;5087195;28;20024;-65
2023/07/23 06:26:11;;;;;;;11.65;5.07;;;;;;;-142.75;100.00;75566.50;5087115;28;20035;-64
2023/07/23 06:28:36;;;;;;;8.90;4.22;;;;;;;-142.75;100.00;75572.41;5086978;28;20023;-64
2023/07/23 06:31:02;;;;;;;9.65;4.78;;;;;;;-142.75;100.00;75584.22;5086616;28;20032;-64
2023/07/23 06:33:27;;;;;;;12.25;4.72;;;;;;;-142.75;100.00;75568.47;5087111;28;20048;-64
2023/07/23 06:35:53;;;;;;;12.68;4.82;;;;;;;-142.75;100.00;75590.13;5087039;28;20012;-64
2023/07/23 06:38:19;;;;;;;9.52;3.78;;;;;;;-142.75;100.00;75597.97;5087099;28;20050;-64
2023/07/23 06:40:50;;;;;;;12.13;5.00;;;;;;;-142.75;100.00;75570.44;5086480;28;20073;-64
2023/07/23 06:43:19;;;;;;;10.57;4.65;;;;;;;-142.75;100.00;75558.63;5086873;28;20050;-65
2023/07/23 06:45:45;;;;;;;10.52;4.82;;;;;;;-142.75;100.00;75550.75;5086898;28;20028;-65
2023/07/23 06:48:11;;;;;;;7.07;4.07;;;;;;;-142.75;100.00;75562.56;5087225;28;20032;-64
2023/07/23 06:50:37;;;;;;;12.65;5.40;;;;;;;-142.75;100.00;75556.66;5086848;28;20418;-64
2023/07/23 06:53:02;;;;;;;9.27;5.00;;;;;;;-142.75;100.00;75558.63;5087065;28;20107;-64
2023/07/23 06:55:28;;;;;;;10.45;4.60;;;;;;;-142.75;100.00;75556.66;5086708;28;20024;-64
2023/07/23 06:57:53;;;;;;;10.88;4.50;;;;;;;-142.75;100.00;75568.47;5086799;28;20115;-64
2023/07/23 07:00:19;;;;;;;10.55;5.53;;;;;;;-142.75;100.00;75550.75;5087071;28;20059;-63
2023/07/23 07:02:44;;;;;;;11.93;5.35;;;;;;;-142.75;100.00;75572.41;5090130;28;20478;-63
2023/07/23 07:05:10;;;;;;;9.80;5.07;;;;;;;-142.75;100.00;75572.41;5091420;28;20086;-63
2023/07/23 07:07:37;;;;;;;11.75;4.68;;;;;;;-142.75;100.00;75558.63;5091252;28;20531;-64
2023/07/23 07:10:06;;;;;;;14.25;5.53;;;;;;;-142.75;100.00;75558.63;5090450;28;20120;-63
2023/07/23 07:12:31;;;;;;;13.20;5.13;;;;;;;-142.75;100.00;75548.78;5091113;28;20038;-64
2023/07/23 07:14:56;;;;;;;8.35;4.18;;;;;;;-142.75;100.00;75542.88;5091296;28;20028;-64
2023/07/23 07:17:22;;;;;;;12.48;4.68;;;;;;;-142.75;100.00;75540.91;5091802;28;20108;-64
2023/07/23 07:19:47;;;;;;;9.75;4.65;;;;;;;-142.75;100.00;75527.13;5091685;28;20394;-64
2023/07/23 07:22:12;;;;;;;10.30;4.18;;;;;;;-142.75;100.00;75546.81;5091867;28;20447;-63
2023/07/23 07:24:38;;;;;;;6.15;3.88;;;;;;;-142.75;100.00;75544.84;5091551;28;20033;-64
2023/07/23 07:27:09;;;;;;;12.75;5.05;;;;;;;-142.75;100.00;75517.28;5091736;28;20028;-65
2023/07/23 07:29:38;;;;;;;9.68;4.53;;;;;;;-142.75;100.00;75523.19;5091510;28;20364;-65
2023/07/23 07:32:04;;;;;;;10.32;4.70;;;;;;;-142.75;100.00;75511.41;5078640;28;20387;-64
2023/07/23 07:34:30;;;;;;;8.05;4.28;;;;;;;-142.75;100.00;75499.59;5072867;28;20024;-64
2023/07/23 07:36:55;;;;;;;10.77;5.03;;;;;;;-142.75;100.00;75503.53;5081336;28;20479;-64
2023/07/23 07:39:20;;;;;;;9.52;4.57;;;;;;;-142.75;100.00;75501.56;5084437;28;20494;-64
2023/07/23 07:41:46;;;;;;;8.23;4.65;;;;;;;-142.75;100.00;75499.59;5077800;28;20051;-64
2023/07/23 07:44:11;;;;;;;7.75;4.18;;;;;;;-142.75;100.00;75497.63;5077553;28;20031;-65
2023/07/23 07:46:36;;;;;;;9.18;4.25;;;;;;;-142.75;100.00;75479.91;5091065;28;20076;-65
2023/07/23 07:49:02;;;;;;;8.60;4.30;;;;;;;-142.75;100.00;75501.56;5080833;28;20081;-64
2023/07/23 07:51:28;;;;;;;7.60;4.15;;;;;;;-142.75;100.00;75468.09;5070607;28;20119;-66
2023/07/23 07:53:53;;;;;;;8.52;4.18;;;;;;;-142.75;100.00;75491.72;5070755;28;20033;-67
2023/07/23 07:56:18;;;;;;;9.07;4.60;;;;;;;-142.75;100.00;75485.81;5074562;28;20038;-66
2023/07/23 07:58:45;;;;;;;10.27;4.05;;;;;;;-142.75;100.00;75495.66;5072980;28;20096;-63
2023/07/23 08:01:11;;;;;;;7.45;4.05;;;;;;;-142.75;100.00;75507.47;5070904;28;20518;-66
2023/07/23 08:03:37;;;;;;;11.65;4.68;;;;;;;-142.75;100.00;75483.84;5069523;28;20032;-65
2023/07/23 08:06:03;;;;;;;9.18;4.35;;;;;;;-142.75;100.00;75487.78;5069343;28;20027;-65
2023/07/23 08:08:31;;;;;;;8.05;3.95;;;;;;;-142.75;100.00;75491.72;5067880;28;20605;-65
2023/07/23 08:10:58;;;;;;;8.65;4.60;;;;;;;-142.75;100.00;75472.03;5069737;28;20551;-66
2023/07/23 08:13:24;;;;;;;9.07;3.97;;;;;;;-142.75;100.00;75462.19;5069277;28;20044;-67
2023/07/23 08:15:51;;;;;;;8.80;4.97;;;;;;;-142.75;100.00;75468.09;5069319;28;20016;-66
2023/07/23 08:18:17;;;;;;;8.05;4.70;;;;;;;-142.75;100.00;75456.28;5076865;28;20027;-67
2023/07/23 08:20:43;;;;;;;8.43;4.28;;;;;;;-142.75;100.00;75452.34;5073016;28;20019;-66
2023/07/23 08:23:08;;;;;;;7.93;4.82;;;;;;;-142.75;100.00;75464.16;5074294;28;20028;-66
2023/07/23 08:25:35;;;;;;;9.93;5.75;;;;;;;-142.75;100.00;75452.34;5074418;28;20031;-67
2023/07/23 08:28:01;;;;;;;8.68;5.05;;;;;;;-142.75;100.00;75464.16;5075307;28;20033;-67
2023/07/23 08:30:28;;;;;;;7.78;4.28;;;;;;;-142.75;100.00;75464.16;5083122;28;20030;-66
2023/07/23 08:32:55;;;;;;;9.20;5.38;;;;;;;-142.75;100.00;75448.41;5074089;28;20085;-66
2023/07/23 08:35:25;;;;;;;10.23;4.72;;;;;;;-142.75;100.00;75454.31;5069457;28;20017;-66
2023/07/23 08:37:51;;;;;;;9.93;5.30;;;;;;;-142.75;100.00;75452.34;5069574;28;20418;-65
2023/07/23 08:40:18;;;;;;;10.60;4.75;;;;;;;-142.75;100.00;75458.25;5068980;28;20028;-66
2023/07/23 08:42:55;;;;;;;7.72;4.55;;;;;;;-142.75;100.00;75428.75;5069493;28;20024;-66
2023/07/23 08:45:45;;;;;;;8.48;5.03;;;;;;;-142.75;100.00;75420.88;5069571;28;20150;-66
2023/07/23 08:48:16;;;;;;;8.95;5.00;;;;;;;-142.75;100.00;75436.59;5069390;28;20036;-66
2023/07/23 08:50:50;;;;;;;9.73;4.82;;;;;;;-142.75;100.00;75413.00;5069117;28;20027;-66
2023/07/23 08:53:18;;;;;;;12.90;5.97;;;;;;;-142.75;100.00;75436.59;5069257;28;20052;-65
2023/07/23 08:55:45;;;;;;;12.25;5.28;;;;;;;-142.75;100.00;75416.94;5069043;28;20221;-64
2023/07/23 08:58:19;;;;;;;7.95;5.00;;;;;;;-142.75;100.00;75416.94;5069311;28;20020;-64
2023/07/23 09:00:46;;;;;;;10.20;5.20;;;;;;;-142.75;100.00;75428.75;5068654;28;20024;-65
2023/07/23 09:03:14;;;;;;;11.07;5.20;;;;;;;-142.75;100.00;75430.72;5069378;28;20029;-65
2023/07/23 09:05:40;;;;;;;9.13;5.25;;;;;;;-142.75;100.00;75430.72;5068752;28;20021;-65
2023/07/23 09:08:06;;;;;;;11.55;5.47;;;;;;;-142.75;100.00;75428.75;5069013;28;20020;-66
2023/07/23 09:10:31;;;;;;;9.38;4.57;;;;;;;-142.75;100.00;75448.41;5068665;28;20574;-64
2023/07/23 09:12:56;;;;;;;10.40;5.10;;;;;;;-142.75;100.00;75430.72;5068905;28;20020;-65
2023/07/23 09:15:22;;;;;;;7.05;4.57;;;;;;;-142.75;100.00;75436.59;5069051;28;20069;-66
2023/07/23 09:17:51;;;;;;;9.45;5.07;;;;;;;-142.75;100.00;75407.09;5068893;28;20028;-65
2023/07/23 09:20:18;;;;;;;11.05;5.00;;;;;;;-142.75;100.00;75411.03;5068535;28;20419;-65
2023/07/23 09:22:47;;;;;;;8.25;5.63;;;;;;;-142.75;100.00;75385.44;5068430;28;20025;-65
2023/07/23 09:25:13;;;;;;;6.53;4.28;;;;;;;-142.75;100.00;75387.41;5068152;28;20016;-64
2023/07/23 09:27:41;;;;;;;7.60;4.50;;;;;;;-142.75;100.00;75385.44;5068385;28;20024;-65
2023/07/23 09:30:07;;;;;;;7.85;4.30;;;;;;;-142.75;100.00;75385.44;5068123;28;20498;-64
2023/07/23 09:32:33;;;;;;;7.38;3.88;;;;;;;-142.75;100.00;75389.38;5069130;28;20062;-64
2023/07/23 09:34:59;;;;;;;6.38;3.67;;;;;;;-142.75;100.00;75401.19;5068600;28;20495;-64
2023/07/23 09:37:28;;;;;;;5.95;3.97;;;;;;;-142.75;100.00;75373.63;5068279;28;20051;-63
2023/07/23 09:39:56;;;;;;;5.80;3.67;;;;;;;-142.75;100.00;75403.16;5068019;28;20103;-64
2023/07/23 09:42:24;;;;;;;8.23;4.10;;;;;;;-142.75;100.00;75389.38;5068348;28;20141;-64
2023/07/23 09:44:50;;;;;;;6.50;3.67;;;;;;;-142.75;100.00;75385.44;5068440;28;20554;-64
2023/07/23 09:47:22;;;;;;;6.63;4.10;;;;;;;-142.75;100.00;75369.69;5068491;28;20222;-64
2023/07/23 09:49:47;;;;;;;5.97;4.25;;;;;;;-142.75;100.00;75411.03;5068043;28;20089;-64
2023/07/23 09:52:13;;;;;;;6.70;4.50;;;;;;;-142.75;100.00;75399.22;5068170;28;20492;-64
2023/07/23 09:54:38;;;;;;;8.02;5.22;;;;;;;-142.75;100.00;75373.63;5066570;28;20604;-65
2023/07/23 09:57:06;;;;;;;7.78;4.70;;;;;;;-142.75;100.00;75385.44;5068291;28;20372;-62
2023/07/23 09:59:32;;;;;;;9.38;5.13;;;;;;;-142.75;100.00;75409.06;5066768;28;20036;-65
2023/07/23 10:01:58;;;;;;;11.05;5.63;;;;;;;-142.75;100.00;75369.69;5068378;28;20026;-65
2023/07/23 10:04:26;;;;;;;9.85;5.95;;;;;;;-142.75;100.00;75357.91;5068143;28;20047;-65
2023/07/23 10:06:53;;;;;;;9.68;5.13;;;;;;;-142.75;100.00;75348.06;5068134;28;20143;-64
2023/07/23 10:09:20;;;;;;;12.25;6.03;;;;;;;-142.75;100.00;75369.69;5049728;28;20017;-65
2023/07/23 10:11:45;;;;;;;16.52;6.13;;;;;;;-142.75;100.00;75346.09;5067829;28;20028;-64
2023/07/23 10:14:11;;;;;;;9.77;5.57;;;;;;;-142.75;100.00;75326.41;5067956;28;20032;-66
2023/07/23 10:16:42;;;;;;;9.20;5.65;;;;;;;-142.75;100.00;75302.78;5067939;28;20578;-66
2023/07/23 10:19:09;;;;;;;8.88;5.90;;;;;;;-142.75;100.00;75318.53;5067736;28;20040;-67
2023/07/23 10:21:36;;;;;;;11.20;5.95;;;;;;;-142.75;100.00;75330.34;5067651;28;20517;-67
2023/07/23 10:24:03;;;;;;;11.18;5.65;;;;;;;-142.75;100.00;75320.50;5067830;28;20028;-67
2023/07/23 10:26:30;;;;;;;8.98;5.43;;;;;;;-142.75;100.00;75294.94;5078970;28;20107;-66
2023/07/23 10:29:15;;;;;;;8.68;6.03;;;;;;;-142.75;100.00;75281.16;5071189;28;20382;-66
2023/07/23 10:31:42;;;;;;;9.57;5.47;;;;;;;-142.75;100.00;75298.84;5071808;28;20025;-67
2023/07/23 10:34:23;;;;;;;10.30;5.93;;;;;;;-142.75;100.00;75285.09;5069446;28;20035;-66
2023/07/23 10:37:13;;;;;;;8.13;5.50;;;;;;;-142.75;100.00;75291.00;5069438;28;20119;-68
2023/07/23 10:39:47;;;;;;;8.82;5.50;;;;;;;-142.75;100.00;75291.00;5073365;28;20040;-65
2023/07/23 10:42:28;;;;;;;10.73;5.60;;;;;;;-142.75;100.00;75259.50;5079109;28;20023;-66
2023/07/23 10:45:32;;;;;;;11.00;5.57;;;;;;;-142.75;100.00;75259.50;5072390;28;20074;-66
2023/07/23 10:48:00;;;;;;;9.25;4.78;;;;;;;-142.75;100.00;75267.38;5069512;28;20499;-66
2023/07/23 10:50:29;;;;;;;9.15;5.40;;;;;;;-142.75;100.00;75269.34;5069231;28;20021;-66
2023/07/23 10:53:05;;;;;;;9.68;5.13;;;;;;;-142.75;100.00;75251.63;5070913;28;20098;-66
2023/07/23 10:55:50;;;;;;;9.20;4.63;;;;;;;-142.75;100.00;75243.75;5074945;28;20043;-66
2023/07/23 10:58:20;;;;;;;7.43;4.43;;;;;;;-142.75;100.00;75243.75;5078816;28;20012;-65
2023/07/23 11:00:57;;;;;;;11.85;4.53;;;;;;;-142.75;100.00;75224.09;5071963;28;20074;-66
2023/07/23 11:03:24;;;;;;;9.27;5.05;;;;;;;-142.75;100.00;75228.00;5074654;28;20020;-66